createdAt,value
2018-11-05T00:01:19.663Z,12.82
2018-11-05T00:03:47.747Z,12.82
2018-11-05T00:06:15.857Z,12.85
2018-11-05T00:08:43.999Z,12.89
2018-11-05T00:11:12.279Z,12.90
2018-11-05T00:13:40.631Z,12.85
2018-11-05T00:16:08.912Z,12.77
2018-11-05T00:18:37.123Z,12.74
2018-11-05T00:21:05.609Z,12.65
2018-11-05T00:23:33.707Z,12.67
2018-11-05T00:26:01.770Z,12.54
2018-11-05T00:28:29.939Z,12.61
2018-11-05T00:30:57.993Z,12.59
2018-11-05T00:33:26.057Z,12.54
2018-11-05T00:35:54.115Z,12.52
2018-11-05T00:38:22.332Z,12.49
2018-11-05T00:40:50.445Z,12.49
2018-11-05T00:43:18.480Z,12.36
2018-11-05T00:45:46.635Z,12.27
2018-11-05T00:48:14.661Z,12.34
2018-11-05T00:50:42.938Z,12.41
2018-11-05T00:53:11.049Z,12.34
2018-11-05T00:55:39.116Z,12.38
2018-11-05T00:58:07.251Z,12.40
2018-11-05T01:00:35.387Z,12.39
2018-11-05T01:03:03.471Z,12.38
2018-11-05T01:05:31.548Z,12.28
2018-11-05T01:07:59.600Z,12.26
2018-11-05T01:10:27.832Z,12.25
2018-11-05T01:12:55.895Z,12.22
2018-11-05T01:15:23.965Z,12.21
2018-11-05T01:17:52.071Z,12.17
2018-11-05T01:20:20.171Z,12.19
2018-11-05T01:22:48.301Z,12.16
2018-11-05T01:25:16.380Z,12.11
2018-11-05T01:27:44.459Z,12.14
2018-11-05T01:30:13.567Z,12.14
2018-11-05T01:32:41.681Z,12.01
2018-11-05T01:35:11.476Z,12.02
2018-11-05T01:37:39.566Z,12.05
2018-11-05T01:40:09.745Z,11.98
2018-11-05T01:42:38.223Z,11.91
2018-11-05T01:45:07.857Z,11.89
2018-11-05T01:47:35.980Z,11.82
2018-11-05T01:50:04.353Z,11.77
2018-11-05T01:52:32.469Z,11.73
2018-11-05T01:55:00.600Z,11.73
2018-11-05T01:57:28.709Z,11.62
2018-11-05T01:59:56.821Z,11.63
2018-11-05T02:02:24.924Z,11.61
2018-11-05T02:04:53.059Z,11.53
2018-11-05T02:07:21.173Z,11.47
2018-11-05T02:09:49.386Z,11.44
2018-11-05T02:12:17.509Z,11.47
2018-11-05T02:14:45.581Z,11.49
2018-11-05T02:17:13.749Z,11.52
2018-11-05T02:19:42.892Z,11.53
2018-11-05T02:22:11.276Z,11.53
2018-11-05T02:24:39.405Z,11.54
2018-11-05T02:27:07.559Z,11.52
2018-11-05T02:29:35.644Z,11.45
2018-11-05T02:32:03.764Z,11.40
2018-11-05T02:34:31.905Z,11.37
2018-11-05T02:37:00.132Z,11.31
2018-11-05T02:39:28.255Z,11.37
2018-11-05T02:41:56.354Z,11.36
2018-11-05T02:44:24.490Z,11.28
2018-11-05T02:46:52.826Z,11.22
2018-11-05T02:49:20.929Z,11.12
2018-11-05T02:51:49.012Z,11.00
2018-11-05T02:54:17.139Z,10.94
2018-11-05T02:56:45.252Z,10.91
2018-11-05T02:59:13.393Z,10.91
2018-11-05T03:01:41.489Z,10.91
2018-11-05T03:04:09.638Z,10.87
2018-11-05T03:06:37.744Z,10.81
2018-11-05T03:09:08.782Z,10.75
2018-11-05T03:11:37.063Z,10.72
2018-11-05T03:14:05.429Z,10.66
2018-11-05T03:16:33.579Z,10.57
2018-11-05T03:19:01.674Z,10.45
2018-11-05T03:21:29.764Z,10.45
2018-11-05T03:23:57.857Z,10.45
2018-11-05T03:26:25.928Z,10.46
2018-11-05T03:28:54.105Z,10.50
2018-11-05T03:31:22.369Z,10.48
2018-11-05T03:33:50.642Z,10.38
2018-11-05T03:36:18.745Z,10.37
2018-11-05T03:38:46.854Z,10.42
2018-11-05T03:41:14.999Z,10.47
2018-11-05T03:43:43.060Z,10.50
2018-11-05T03:46:11.184Z,10.52
2018-11-05T03:48:39.278Z,10.55
2018-11-05T03:51:07.381Z,10.56
2018-11-05T03:53:35.506Z,10.53
2018-11-05T03:56:03.675Z,10.57
2018-11-05T03:58:31.665Z,10.53
2018-11-05T04:00:59.803Z,10.46
2018-11-05T04:03:27.959Z,10.42
2018-11-05T04:05:55.979Z,10.43
2018-11-05T04:08:24.073Z,10.37
2018-11-05T04:10:52.150Z,10.29
2018-11-05T04:13:20.224Z,10.27
2018-11-05T04:15:48.408Z,10.19
2018-11-05T04:18:16.431Z,10.23
2018-11-05T04:20:44.501Z,10.24
2018-11-05T04:23:12.624Z,10.22
2018-11-05T04:25:40.689Z,10.21
2018-11-05T04:28:08.766Z,10.21
2018-11-05T04:30:36.837Z,10.24
2018-11-05T04:33:05.357Z,10.24
2018-11-05T04:35:33.438Z,10.23
2018-11-05T04:38:01.507Z,10.21
2018-11-05T04:40:29.713Z,10.19
2018-11-05T04:42:57.793Z,10.18
2018-11-05T04:45:25.921Z,10.23
2018-11-05T04:47:54.017Z,10.25
2018-11-05T04:50:22.110Z,10.27
2018-11-05T04:52:50.185Z,10.24
2018-11-05T04:55:18.314Z,10.26
2018-11-05T04:57:46.389Z,10.30
2018-11-05T05:00:16.798Z,10.22
2018-11-05T05:02:44.900Z,10.21
2018-11-05T05:05:14.185Z,10.32
2018-11-05T05:07:42.432Z,10.39
2018-11-05T05:10:10.975Z,10.40
2018-11-05T05:12:40.252Z,10.40
2018-11-05T05:15:08.740Z,10.38
2018-11-05T05:17:37.097Z,10.34
2018-11-05T05:20:07.829Z,10.32
2018-11-05T05:22:36.036Z,10.35
2018-11-05T05:25:04.117Z,10.35
2018-11-05T05:27:32.201Z,10.33
2018-11-05T05:30:00.316Z,10.29
2018-11-05T05:32:28.388Z,10.28
2018-11-05T05:34:56.533Z,10.27
2018-11-05T05:37:24.597Z,10.21
2018-11-05T05:39:52.681Z,10.13
2018-11-05T05:42:20.773Z,10.17
2018-11-05T05:44:48.854Z,10.10
2018-11-05T05:47:17.032Z,10.10
2018-11-05T05:49:45.093Z,10.10
2018-11-05T05:52:13.175Z,10.11
2018-11-05T05:54:41.246Z,10.04
2018-11-05T05:57:09.474Z,10.00
2018-11-05T05:59:37.559Z,10.01
2018-11-05T06:02:06.450Z,10.03
2018-11-05T06:04:34.576Z,10.02
2018-11-05T06:07:02.654Z,10.01
2018-11-05T06:09:30.750Z,10.07
2018-11-05T06:11:58.887Z,10.07
2018-11-05T06:14:26.999Z,10.05
2018-11-05T06:16:55.078Z,9.99
2018-11-05T06:19:23.118Z,9.97
2018-11-05T06:21:51.301Z,10.01
2018-11-05T06:24:19.253Z,9.96
2018-11-05T06:26:47.349Z,9.86
2018-11-05T06:29:15.433Z,9.81
2018-11-05T06:31:43.501Z,9.76
2018-11-05T06:34:11.585Z,9.75
2018-11-05T06:36:39.709Z,9.70
2018-11-05T06:39:11.459Z,9.67
2018-11-05T06:41:40.093Z,9.62
2018-11-05T06:44:08.305Z,9.62
2018-11-05T06:46:36.333Z,9.57
2018-11-05T06:49:04.488Z,9.54
2018-11-05T06:51:32.802Z,9.57
2018-11-05T06:54:00.881Z,9.54
2018-11-05T06:56:28.953Z,9.41
2018-11-05T06:58:57.053Z,9.41
2018-11-05T07:01:25.123Z,9.45
2018-11-05T07:03:53.200Z,9.52
2018-11-05T07:06:21.272Z,9.55
2018-11-05T07:08:49.348Z,9.48
2018-11-05T07:11:17.679Z,9.43
2018-11-05T07:13:45.646Z,9.41
2018-11-05T07:16:13.711Z,9.43
2018-11-05T07:18:42.006Z,9.52
2018-11-05T07:21:09.948Z,9.59
2018-11-05T07:23:38.205Z,9.60
2018-11-05T07:26:07.342Z,9.60
2018-11-05T07:28:35.458Z,9.65
2018-11-05T07:31:03.550Z,9.68
2018-11-05T07:33:31.774Z,9.75
2018-11-05T07:35:59.654Z,9.77
2018-11-05T07:38:27.729Z,9.81
2018-11-05T07:40:55.810Z,9.85
2018-11-05T07:43:23.910Z,9.88
2018-11-05T07:45:51.983Z,9.91
2018-11-05T07:48:20.058Z,9.95
2018-11-05T07:50:48.228Z,9.99
2018-11-05T07:53:16.324Z,10.00
2018-11-05T07:55:44.425Z,10.00
2018-11-05T07:58:12.521Z,9.93
2018-11-05T08:01:11.220Z,9.87
2018-11-05T08:03:39.296Z,9.88
2018-11-05T08:06:07.402Z,9.93
2018-11-05T08:08:35.478Z,10.04
2018-11-05T08:11:03.581Z,10.05
2018-11-05T08:13:31.640Z,10.10
2018-11-05T08:15:59.741Z,10.19
2018-11-05T08:18:27.804Z,10.25
2018-11-05T08:20:56.003Z,10.28
2018-11-05T08:23:24.308Z,10.30
2018-11-05T08:25:52.400Z,10.31
2018-11-05T08:28:20.459Z,10.31
2018-11-05T08:30:48.555Z,10.38
2018-11-05T08:33:16.810Z,10.41
2018-11-05T08:35:44.897Z,10.42
2018-11-05T08:38:13.001Z,10.38
2018-11-05T08:40:41.066Z,10.33
2018-11-05T08:43:09.162Z,10.34
2018-11-05T08:45:37.259Z,10.46
2018-11-05T08:48:05.328Z,10.53
2018-11-05T08:50:33.454Z,10.66
2018-11-05T08:53:01.525Z,10.81
2018-11-05T08:55:29.665Z,10.91
2018-11-05T08:57:57.752Z,10.99
2018-11-05T09:00:31.322Z,11.07
2018-11-05T09:02:59.434Z,11.13
2018-11-05T09:05:27.507Z,11.23
2018-11-05T09:07:56.230Z,11.21
2018-11-05T09:10:24.535Z,11.25
2018-11-05T09:12:52.440Z,11.30
2018-11-05T09:15:21.573Z,11.35
2018-11-05T09:17:49.704Z,11.42
2018-11-05T09:20:18.652Z,11.48
2018-11-05T09:22:47.457Z,11.47
2018-11-05T09:25:16.319Z,11.55
2018-11-05T09:27:44.487Z,11.60
2018-11-05T09:32:43.313Z,11.78
2018-11-05T09:35:11.417Z,11.85
2018-11-05T09:37:39.622Z,11.92
2018-11-05T09:40:10.085Z,12.00
2018-11-05T09:42:39.117Z,12.11
2018-11-05T09:45:09.916Z,12.23
2018-11-05T09:47:38.041Z,12.37
2018-11-05T09:50:07.400Z,12.47
2018-11-05T09:52:35.526Z,12.55
2018-11-05T09:55:03.595Z,12.66
2018-11-05T09:57:31.663Z,12.76
2018-11-05T09:59:59.769Z,12.83
2018-11-05T10:02:33.961Z,12.85
2018-11-05T10:05:02.255Z,12.84
2018-11-05T10:07:30.073Z,12.90
2018-11-05T10:09:58.148Z,12.92
2018-11-05T10:12:26.324Z,13.00
2018-11-05T10:14:54.404Z,13.03
2018-11-05T10:17:22.466Z,13.05
2018-11-05T10:19:50.581Z,13.00
2018-11-05T10:22:18.659Z,12.96
2018-11-05T10:24:46.845Z,13.02
2018-11-05T10:27:14.777Z,13.07
2018-11-05T10:29:42.839Z,13.13
2018-11-05T10:32:10.921Z,13.06
2018-11-05T10:34:39.034Z,13.05
2018-11-05T10:37:07.170Z,13.15
2018-11-05T10:39:35.283Z,13.04
2018-11-05T10:42:03.377Z,13.00
2018-11-05T10:44:31.445Z,13.08
2018-11-05T10:46:59.573Z,13.20
2018-11-05T10:49:27.674Z,13.17
2018-11-05T10:51:55.839Z,13.38
2018-11-05T10:54:23.824Z,13.56
2018-11-05T10:56:51.970Z,13.76
2018-11-05T10:59:20.037Z,13.93
2018-11-05T11:01:53.626Z,14.22
2018-11-05T11:04:27.051Z,14.63
2018-11-05T11:06:55.049Z,14.86
2018-11-05T11:09:23.149Z,15.13
2018-11-05T11:11:51.263Z,16.98
2018-11-05T11:14:19.360Z,19.66
2018-11-05T11:16:47.434Z,21.88
2018-11-05T11:19:15.593Z,23.52
2018-11-05T11:21:43.708Z,24.61
2018-11-05T11:24:11.847Z,25.90
2018-11-05T11:26:39.950Z,27.07
2018-11-05T11:29:08.219Z,28.13
2018-11-05T11:31:36.371Z,28.81
2018-11-05T11:34:04.453Z,29.29
2018-11-05T11:36:32.622Z,29.84
2018-11-05T11:39:00.670Z,27.51
2018-11-05T11:41:28.785Z,25.18
2018-11-05T11:43:56.869Z,23.56
2018-11-05T11:46:24.924Z,22.29
2018-11-05T11:48:52.992Z,20.32
2018-11-05T11:51:21.052Z,20.18
2018-11-05T11:53:49.158Z,19.87
2018-11-05T11:56:17.311Z,19.65
2018-11-05T11:58:45.473Z,19.15
2018-11-05T12:01:13.496Z,19.08
2018-11-05T12:03:41.602Z,18.84
2018-11-05T12:06:09.620Z,18.42
2018-11-05T12:08:37.724Z,17.84
2018-11-05T12:11:05.917Z,17.92
2018-11-05T12:13:34.084Z,17.81
2018-11-05T12:16:02.155Z,17.49
2018-11-05T12:18:30.217Z,17.14
2018-11-05T12:20:58.341Z,17.06
2018-11-05T12:23:26.443Z,16.85
2018-11-05T12:25:54.536Z,16.80
2018-11-05T12:28:22.599Z,16.64
2018-11-05T12:30:50.698Z,16.73
2018-11-05T12:33:18.842Z,16.67
2018-11-05T12:35:46.896Z,16.66
2018-11-05T12:38:14.973Z,16.48
2018-11-05T12:40:43.041Z,16.62
2018-11-05T12:43:11.161Z,16.66
2018-11-05T12:45:39.228Z,16.50
2018-11-05T12:48:07.302Z,16.53
2018-11-05T12:50:35.429Z,16.65
2018-11-05T12:53:03.510Z,16.69
2018-11-05T12:55:31.591Z,16.62
2018-11-05T12:57:59.721Z,16.78
2018-11-05T13:00:27.861Z,16.98
2018-11-05T13:02:58.305Z,17.04
2018-11-05T13:05:27.209Z,17.15
2018-11-05T13:07:55.317Z,17.23
2018-11-05T13:10:23.629Z,17.40
2018-11-05T13:12:51.713Z,17.45
2018-11-05T13:15:19.871Z,17.53
2018-11-05T13:17:47.933Z,17.53
2018-11-05T13:20:18.201Z,17.43
2018-11-05T13:22:46.688Z,17.43
2018-11-05T13:25:14.850Z,17.29
2018-11-05T13:27:44.270Z,17.29
2018-11-05T13:30:13.140Z,17.26
2018-11-05T13:32:41.640Z,17.37
2018-11-05T13:35:11.965Z,17.22
2018-11-05T13:37:40.462Z,17.24
2018-11-05T13:40:10.696Z,17.33
2018-11-05T13:42:38.827Z,17.16
2018-11-05T13:45:08.444Z,17.26
2018-11-05T13:47:37.208Z,17.30
2018-11-05T13:50:05.466Z,17.38
2018-11-05T13:52:33.371Z,17.39
2018-11-05T13:55:01.706Z,17.35
2018-11-05T13:57:29.415Z,17.30
2018-11-05T13:59:57.537Z,17.20
2018-11-05T14:02:25.673Z,17.12
2018-11-05T14:04:53.729Z,17.13
2018-11-05T14:07:21.813Z,17.17
2018-11-05T14:09:49.900Z,17.14
2018-11-05T14:12:18.005Z,17.15
2018-11-05T14:14:46.098Z,17.13
2018-11-05T14:17:14.213Z,17.12
2018-11-05T14:19:42.296Z,17.12
2018-11-05T14:22:10.444Z,17.04
2018-11-05T14:24:38.504Z,16.96
2018-11-05T14:27:06.640Z,16.93
2018-11-05T14:29:35.313Z,16.96
2018-11-05T14:32:02.855Z,16.95
2018-11-05T14:34:30.950Z,17.01
2018-11-05T14:36:59.139Z,16.99
2018-11-05T14:39:27.076Z,16.96
2018-11-05T14:41:55.131Z,16.93
2018-11-05T14:44:23.226Z,16.88
2018-11-05T14:46:51.291Z,16.87
2018-11-05T14:49:19.359Z,16.84
2018-11-05T14:51:47.482Z,16.82
2018-11-05T14:54:15.568Z,16.81
2018-11-05T14:56:43.649Z,16.79
2018-11-05T14:59:11.754Z,16.79
2018-11-05T15:01:39.823Z,16.81
2018-11-05T15:04:07.936Z,16.81
2018-11-05T15:06:36.032Z,16.77
2018-11-05T15:09:05.925Z,16.73
2018-11-05T15:11:34.009Z,16.70
2018-11-05T15:14:02.132Z,16.64
2018-11-05T15:16:30.183Z,16.61
2018-11-05T15:18:58.538Z,16.53
2018-11-05T15:21:26.436Z,16.50
2018-11-05T15:23:54.659Z,16.56
2018-11-05T15:26:22.773Z,16.51
2018-11-05T15:28:50.867Z,16.46
2018-11-05T15:31:18.960Z,16.46
2018-11-05T15:33:47.144Z,16.43
2018-11-05T15:36:15.201Z,16.49
2018-11-05T15:38:43.334Z,16.48
2018-11-05T15:41:11.511Z,16.43
2018-11-05T15:43:39.640Z,16.33
2018-11-05T15:46:08.140Z,16.24
2018-11-05T15:48:36.221Z,16.15
2018-11-05T15:51:04.480Z,16.09
2018-11-05T15:53:32.755Z,16.10
2018-11-05T15:56:00.634Z,16.11
2018-11-05T15:58:28.717Z,16.02
2018-11-05T16:00:56.817Z,15.95
2018-11-05T16:03:24.909Z,15.99
2018-11-05T16:05:53.010Z,15.95
2018-11-05T16:08:21.141Z,15.89
2018-11-05T16:10:49.302Z,15.91
2018-11-05T16:13:17.468Z,15.87
2018-11-05T16:15:45.544Z,15.81
2018-11-05T16:18:13.692Z,15.86
2018-11-05T16:20:41.830Z,15.85
2018-11-05T16:23:09.935Z,15.80
2018-11-05T16:25:38.080Z,15.78
2018-11-05T16:28:06.719Z,15.73
2018-11-05T16:30:34.846Z,15.69
2018-11-05T16:33:02.929Z,15.62
2018-11-05T16:35:31.087Z,15.59
2018-11-05T16:37:59.144Z,15.40
2018-11-05T16:40:27.275Z,15.37
2018-11-05T16:42:55.595Z,15.36
2018-11-05T16:45:23.834Z,15.38
2018-11-05T16:47:52.077Z,15.38
2018-11-05T16:50:22.068Z,15.33
2018-11-05T16:52:50.136Z,15.32
2018-11-05T16:55:18.292Z,15.26
2018-11-05T16:57:46.436Z,15.30
2018-11-05T17:00:15.110Z,15.29
2018-11-05T17:02:44.158Z,15.21
2018-11-05T17:05:12.077Z,15.17
2018-11-05T17:07:40.455Z,15.16
2018-11-05T17:10:10.201Z,15.06
2018-11-05T17:12:38.312Z,15.02
2018-11-05T17:15:08.245Z,14.98
2018-11-05T17:17:36.376Z,14.93
2018-11-05T17:20:05.456Z,14.84
2018-11-05T17:22:33.541Z,14.87
2018-11-05T17:25:01.637Z,14.82
2018-11-05T17:27:29.792Z,14.77
2018-11-05T17:29:58.136Z,14.70
2018-11-05T17:32:26.251Z,14.68
2018-11-05T17:34:54.365Z,14.67
2018-11-05T17:37:22.488Z,14.56
2018-11-05T17:39:50.584Z,14.62
2018-11-05T17:42:19.554Z,14.67
2018-11-05T17:44:47.708Z,14.61
2018-11-05T17:47:15.777Z,14.40
2018-11-05T17:49:43.889Z,14.46
2018-11-05T17:52:12.036Z,14.45
2018-11-05T17:54:40.138Z,14.45
2018-11-05T17:57:08.312Z,14.37
2018-11-05T17:59:36.324Z,14.22
2018-11-05T18:02:04.409Z,14.11
2018-11-05T18:04:32.651Z,14.10
2018-11-05T18:07:00.605Z,14.13
2018-11-05T18:09:28.960Z,14.13
2018-11-05T18:11:56.919Z,13.94
2018-11-05T18:14:25.053Z,14.01
2018-11-05T18:16:53.169Z,14.04
2018-11-05T18:19:21.304Z,14.04
2018-11-05T18:21:49.564Z,14.02
2018-11-05T18:24:17.745Z,14.04
2018-11-05T18:26:45.794Z,14.04
2018-11-05T18:29:13.942Z,13.83
2018-11-05T18:31:42.058Z,13.91
2018-11-05T18:34:10.334Z,13.87
2018-11-05T18:36:38.418Z,13.79
2018-11-05T18:39:08.720Z,13.76
2018-11-05T18:41:37.194Z,13.70
2018-11-05T18:44:05.420Z,13.66
2018-11-05T18:46:33.525Z,13.65
2018-11-05T18:49:01.614Z,13.65
2018-11-05T18:51:29.820Z,13.66
2018-11-05T18:53:57.902Z,13.54
2018-11-05T18:56:26.011Z,13.53
2018-11-05T18:58:54.100Z,13.51
2018-11-05T19:01:22.263Z,13.51
2018-11-05T19:03:50.526Z,13.52
2018-11-05T19:06:18.566Z,13.51
2018-11-05T19:08:46.653Z,13.46
2018-11-05T19:11:14.717Z,13.37
2018-11-05T19:13:42.848Z,13.35
2018-11-05T19:16:10.912Z,13.26
2018-11-05T19:18:38.972Z,13.23
2018-11-05T19:21:07.075Z,13.17
2018-11-05T19:23:35.275Z,13.05
2018-11-05T19:26:03.317Z,13.01
2018-11-05T19:28:31.458Z,12.93
2018-11-05T19:30:59.529Z,12.98
2018-11-05T19:33:27.723Z,12.91
2018-11-05T19:35:55.855Z,12.88
2018-11-05T19:38:23.849Z,12.87
2018-11-05T19:40:51.953Z,12.85
2018-11-05T19:43:20.058Z,12.81
2018-11-05T19:45:48.149Z,12.83
2018-11-05T19:48:16.248Z,12.81
2018-11-05T19:50:44.338Z,12.82
2018-11-05T19:53:12.447Z,12.75
2018-11-05T19:55:40.579Z,12.71
2018-11-05T19:58:08.796Z,12.66
2018-11-05T20:00:36.944Z,12.61
2018-11-05T20:03:05.426Z,12.50
2018-11-05T20:05:33.597Z,12.46
2018-11-05T20:08:01.662Z,12.38
2018-11-05T20:10:29.784Z,12.34
2018-11-05T20:12:57.852Z,12.33
2018-11-05T20:15:25.992Z,12.27
2018-11-05T20:17:54.922Z,12.21
2018-11-05T20:20:24.061Z,12.15
2018-11-05T20:22:52.290Z,12.09
2018-11-05T20:25:20.344Z,12.04
2018-11-05T20:27:48.439Z,11.99
2018-11-05T20:30:22.602Z,12.03
2018-11-05T20:32:51.867Z,12.02
2018-11-05T20:35:19.735Z,12.01
2018-11-05T20:37:47.865Z,11.97
2018-11-05T20:40:17.290Z,11.97
2018-11-05T20:42:46.383Z,11.98
2018-11-05T20:45:15.231Z,11.97
2018-11-05T20:47:43.693Z,11.97
2018-11-05T20:50:12.604Z,11.96
2018-11-05T20:52:40.745Z,11.95
2018-11-05T20:55:09.995Z,11.92
2018-11-05T20:57:38.557Z,11.83
2018-11-05T21:00:08.268Z,11.69
2018-11-05T21:02:36.402Z,11.59
2018-11-05T21:05:04.715Z,11.45
2018-11-05T21:07:32.875Z,11.28
2018-11-05T21:10:00.946Z,11.19
2018-11-05T21:12:29.309Z,11.08
2018-11-05T21:14:57.539Z,11.03
2018-11-05T21:17:25.589Z,11.01
2018-11-05T21:19:53.682Z,11.02
2018-11-05T21:22:21.828Z,10.99
2018-11-05T21:24:49.841Z,11.00
2018-11-05T21:27:18.121Z,10.98
2018-11-05T21:29:46.253Z,10.98
2018-11-05T21:32:14.398Z,11.02
2018-11-05T21:34:42.515Z,11.08
2018-11-05T21:37:10.561Z,11.13
2018-11-05T21:39:38.634Z,11.15
2018-11-05T21:42:06.856Z,11.08
2018-11-05T21:44:34.986Z,11.07
2018-11-05T21:47:03.057Z,11.13
2018-11-05T21:49:31.196Z,11.16
2018-11-05T21:51:59.281Z,11.17
2018-11-05T21:54:27.518Z,11.17
2018-11-05T21:56:55.580Z,11.12
2018-11-05T21:59:23.657Z,11.09
2018-11-05T22:01:51.845Z,10.99
2018-11-05T22:04:20.009Z,10.97
2018-11-05T22:06:48.079Z,10.99
2018-11-05T22:09:16.184Z,10.89
2018-11-05T22:11:44.281Z,10.86
2018-11-05T22:14:12.397Z,10.80
2018-11-05T22:16:40.472Z,10.74
2018-11-05T22:19:08.550Z,10.69
2018-11-05T22:21:36.696Z,10.73
2018-11-05T22:24:05.354Z,10.71
2018-11-05T22:26:33.464Z,10.72
2018-11-05T22:29:01.571Z,10.69
2018-11-05T22:31:29.729Z,10.69
2018-11-05T22:33:57.939Z,10.66
2018-11-05T22:36:26.081Z,10.69
2018-11-05T22:38:54.101Z,10.67
2018-11-05T22:41:22.229Z,10.62
2018-11-05T22:43:50.370Z,10.55
2018-11-05T22:46:18.528Z,10.50
2018-11-05T22:48:46.617Z,10.41
2018-11-05T22:51:14.745Z,10.38
2018-11-05T22:53:42.844Z,10.45
2018-11-05T22:56:10.949Z,10.46
2018-11-05T22:58:39.040Z,10.47
2018-11-05T23:01:08.515Z,10.48
2018-11-05T23:03:36.725Z,10.39
2018-11-05T23:06:04.809Z,10.32
2018-11-05T23:08:32.912Z,10.31
2018-11-05T23:11:01.428Z,10.28
2018-11-05T23:13:29.534Z,10.27
2018-11-05T23:15:57.597Z,10.29
2018-11-05T23:18:25.896Z,10.29
2018-11-05T23:20:54.025Z,10.31
2018-11-05T23:23:22.169Z,10.32
2018-11-05T23:25:50.323Z,10.32
2018-11-05T23:28:18.638Z,10.38
2018-11-05T23:30:46.725Z,10.42
2018-11-05T23:33:14.846Z,10.36
2018-11-05T23:35:42.884Z,10.30
2018-11-05T23:38:11.272Z,10.25
2018-11-05T23:40:39.412Z,10.24
2018-11-05T23:43:07.488Z,10.31
2018-11-05T23:45:35.600Z,10.33
2018-11-05T23:48:03.688Z,10.31
2018-11-05T23:50:31.812Z,10.33
2018-11-05T23:52:59.964Z,10.30
2018-11-05T23:55:27.997Z,10.30
2018-11-05T23:57:56.117Z,10.29
